This is the latest recevied weather packets stored in our database for station/object W7TTE. If no packets are shown the sender has not sent any weather packets the latest 1 day(s).
| Time | Temp. | Humidity | Pressure | Rain* | Wind** | Luminosity | Snow |
|---|---|---|---|---|---|---|---|
| 1836274707 | 32.78° C | 41% | 1013.1 hPa | 0 mm | 0.89 m/s, 149° | 0 W/m² | - |
| 1836274560 | 32.78° C | 41% | 1013.4 hPa | 0 mm | 0.45 m/s, 179° | 0 W/m² | - |
| 1836274406 | 32.78° C | 41% | 1012.8 hPa | 0 mm | 0.89 m/s, 164° | 0 W/m² | - |
| 1836274259 | 32.78° C | 41% | 1013.3 hPa | 0 mm | 0.45 m/s, 197° | 0 W/m² | - |
| 1836274103 | 32.78° C | 41% | 1012.9 hPa | 0 mm | 0 m/s | 0 W/m² | - |
| 1778058943 | 16.11° C | 43% | 1016.1 hPa | 0 mm | 0 m/s | 0 W/m² | - |
| 1778058639 | 15.56° C | 43% | 1016.1 hPa | 0 mm | 0 m/s | 0 W/m² | - |
| 1778058337 | 15.56° C | 43% | 1015.9 hPa | 0 mm | 0 m/s | 0 W/m² | - |
| 1778058033 | 16.11° C | 43% | 1015.8 hPa | 0 mm | 0 m/s | 0 W/m² | - |
| 1778057730 | 16.11° C | 42% | 1016 hPa | 0 mm | 0 m/s | 0 W/m² | - |
| 1778057427 | 16.11° C | 42% | 1015.9 hPa | 0 mm | 0 m/s | 0 W/m² | - |
| 1778057124 | 16.11° C | 42% | 1015.9 hPa | 0 mm | 0 m/s | 0 W/m² | - |
| 1778056820 | 16.11° C | 42% | 1016 hPa | 0 mm | 0 m/s | 0 W/m² | - |
| 1778056517 | 16.11° C | 42% | 1015.7 hPa | 0 mm | 0 m/s | 0 W/m² | - |
| 1778056215 | 16.11° C | 43% | 1015.7 hPa | 0 mm | 0 m/s | 0 W/m² | - |
| 1778055911 | 16.11° C | 44% | 1015.9 hPa | 0 mm | 0 m/s | 0 W/m² | - |
| 1778055607 | 16.11° C | 44% | 1015.8 hPa | 0 mm | 0 m/s | 0 W/m² | - |
| 1778055305 | 16.67° C | 43% | 1015.7 hPa | 0 mm | 0 m/s | 0 W/m² | - |
| 1778055002 | 16.11° C | 44% | 1015.9 hPa | 0 mm | 0 m/s | 0 W/m² | - |
| 1778054700 | 16.11° C | 44% | 1015.8 hPa | 0 mm | 0 m/s | 0 W/m² | - |
| 1778054397 | 16.67° C | 42% | 1015.8 hPa | 0 mm | 0 m/s | 0 W/m² | - |
| 1778054095 | 16.67° C | 41% | 1015.9 hPa | 0 mm | 0 m/s | 0 W/m² | - |
| 1778053791 | 16.67° C | 41% | 1015.8 hPa | 0 mm | 0 m/s | 0 W/m² | - |
| 1778053488 | 16.67° C | 41% | 1015.8 hPa | 0 mm | 0 m/s | 0 W/m² | - |
| 1778053185 | 17.22° C | 41% | 1015.9 hPa | 0 mm | 0 m/s | 0 W/m² | - |
* Rain latest hour (hover to see other rain measurements)
** Current wind speed in m/s (hover to see current wind gust speed)